Time;durP1;ratioP1;P1;durP2;ratioP2;P2;SDS_P1;SDS_P2;PMS_P1;PMS_P2;Temp;Humidity;BMP_temperature;BMP_pressure;BME280_temperature;BME280_humidity;BME280_pressure;Samples;Min_cycle;Max_cycle;Signal;HPM_P1;HPM_P2
2022/06/20 00:01:23;;;;;;;;;;;;;;;21.84;81.45;97085.39;601748;236;64893;-69
2022/06/20 00:03:51;;;;;;;;;;;;;;;21.84;81.36;97081.92;601742;236;64925;-74
2022/06/20 00:06:20;;;;;;;;;;;;;;;21.84;81.46;97082.72;601786;236;66500;-74
2022/06/20 00:08:51;;;;;;;;;;;;;;;21.84;81.70;97081.92;601710;236;65487;-74
2022/06/20 00:11:20;;;;;;;;;;;;;;;21.83;81.97;97075.77;601764;236;65092;-73
2022/06/20 00:13:49;;;;;;;;;;;;;;;21.83;81.84;97081.13;601724;236;64410;-74
2022/06/20 00:16:18;;;;;;;;;;;;;;;21.83;81.88;97078.45;601756;236;66456;-74
2022/06/20 00:18:46;;;;;;;;;;;;;;;21.83;81.97;97073.09;601719;233;64911;-74
2022/06/20 00:21:14;;;;;;;;;;;;;;;21.83;82.21;97078.45;601754;236;66566;-74
2022/06/20 00:23:42;;;;;;;;;;;;;;;21.83;82.20;97074.98;601738;236;64581;-69
2022/06/20 00:26:10;;;;;;;;;;;;;;;21.83;81.93;97072.30;601741;236;62844;-69
2022/06/20 00:28:38;;;;;;;;;;;;;;;21.83;81.93;97074.98;601735;236;64476;-69
2022/06/20 00:31:06;;;;;;;;;;;;;;;21.82;81.94;97068.80;601740;236;64558;-69
2022/06/20 00:33:34;;;;;;;;;;;;;;;21.82;81.89;97074.16;601710;236;64915;-68
2022/06/20 00:36:01;;;;;;;;;;;;;;;21.82;81.85;97071.48;601738;236;67039;-69
2022/06/20 00:38:29;;;;;;;;;;;;;;;21.82;82.02;97066.13;601717;236;66603;-69
2022/06/20 00:40:58;;;;;;;;;;;;;;;21.83;82.13;97066.95;601731;236;64863;-68
2022/06/20 00:43:27;;;;;;;;;;;;;;;21.82;82.24;97070.69;601712;236;66521;-69
2022/06/20 00:45:56;;;;;;;;;;;;;;;21.82;82.24;97063.45;601710;235;64518;-68
2022/06/20 00:48:31;;;;;;;;;;;;;;;21.81;82.36;97061.87;601707;236;65290;-69
2022/06/20 00:51:00;;;;;;;;;;;;;;;21.83;82.36;97059.73;601628;236;64309;-70
2022/06/20 00:53:29;;;;;;;;;;;;;;;21.82;82.47;97059.98;601739;236;65565;-70
2022/06/20 00:55:58;;;;;;;;;;;;;;;21.81;82.41;97056.52;601674;236;62715;-71
2022/06/20 00:58:33;;;;;;;;;;;;;;;21.82;82.57;97054.63;601741;236;66567;-70
2022/06/20 01:01:01;;;;;;;;;;;;;;;21.82;82.60;97052.75;601688;235;66647;-70
2022/06/20 01:03:30;;;;;;;;;;;;;;;21.80;82.64;97049.58;601711;236;65049;-70
2022/06/20 01:05:58;;;;;;;;;;;;;;;21.81;82.67;97051.16;601652;235;64591;-70
2022/06/20 01:08:28;;;;;;;;;;;;;;;21.82;82.59;97046.61;601709;236;65505;-69
2022/06/20 01:11:00;;;;;;;;;;;;;;;21.81;82.45;97040.47;601747;236;64979;-69
2022/06/20 01:13:28;;;;;;;;;;;;;;;21.81;82.33;97045.81;601745;236;66821;-73
2022/06/20 01:15:57;;;;;;;;;;;;;;;21.81;82.56;97039.67;601740;236;66358;-73
2022/06/20 01:18:25;;;;;;;;;;;;;;;21.81;82.64;97039.67;601660;233;62877;-73
2022/06/20 01:20:54;;;;;;;;;;;;;;;21.81;82.62;97042.34;601718;236;64616;-74
2022/06/20 01:23:27;;;;;;;;;;;;;;;21.80;82.60;97038.88;601685;236;67124;-73
2022/06/20 01:25:56;;;;;;;;;;;;;;;21.81;82.63;97035.12;601747;236;64844;-73
2022/06/20 01:28:31;;;;;;;;;;;;;;;21.81;82.61;97035.12;601642;235;66924;-74
2022/06/20 01:30:59;;;;;;;;;;;;;;;21.80;82.36;97033.53;601722;236;64582;-74
2022/06/20 01:33:27;;;;;;;;;;;;;;;21.80;82.55;97032.70;601675;236;62572;-74
2022/06/20 01:38:42;;;;;;;;;;;;;;;21.80;82.58;97030.85;601735;236;64359;-74
2022/06/20 01:43:57;;;;;;;;;;;;;;;21.79;82.34;97018.53;601670;236;66602;-69
2022/06/20 01:46:29;;;;;;;;;;;;;;;21.79;82.45;97023.88;601712;236;67345;-69
2022/06/20 01:48:59;;;;;;;;;;;;;;;21.79;82.45;97021.20;601682;236;64837;-69
2022/06/20 01:51:28;;;;;;;;;;;;;;;21.80;82.48;97027.35;601715;236;65106;-69
2022/06/20 01:53:57;;;;;;;;;;;;;;;21.80;82.61;97020.16;601701;236;66648;-69
2022/06/20 01:56:26;;;;;;;;;;;;;;;21.79;82.33;97021.20;601734;236;63053;-69
2022/06/20 01:58:55;;;;;;;;;;;;;;;21.80;82.38;97008.63;601628;235;65459;-69
2022/06/20 02:01:22;;;;;;;;;;;;;;;21.79;82.29;97021.20;601503;235;66523;-69
2022/06/20 02:03:50;;;;;;;;;;;;;;;21.80;82.34;97022.83;601722;236;64845;-69
2022/06/20 02:06:18;;;;;;;;;;;;;;;21.80;82.48;97022.00;601742;236;64379;-69
2022/06/20 02:08:47;;;;;;;;;;;;;;;21.79;82.61;97023.88;601747;236;64411;-69
2022/06/20 02:11:16;;;;;;;;;;;;;;;21.80;82.60;97022.83;601673;236;62656;-69
2022/06/20 02:13:45;;;;;;;;;;;;;;;21.80;82.54;97019.33;601611;235;66816;-69
2022/06/20 02:16:14;;;;;;;;;;;;;;;21.79;82.55;97021.20;601690;236;66666;-69
2022/06/20 02:18:43;;;;;;;;;;;;;;;21.78;82.57;97006.25;604822;233;64876;-69
2022/06/20 02:21:15;;;;;;;;;;;;;;;21.79;82.45;97009.71;607959;233;66793;-69
2022/06/20 02:23:44;;;;;;;;;;;;;;;21.79;82.51;97013.19;607968;233;64405;-69
2022/06/20 02:26:12;;;;;;;;;;;;;;;21.79;82.47;97001.69;607929;233;62700;-69
2022/06/20 02:28:41;;;;;;;;;;;;;;;21.79;82.56;97009.71;607932;233;66794;-69
2022/06/20 02:31:09;;;;;;;;;;;;;;;21.79;82.55;97013.19;607901;233;66368;-69
2022/06/20 02:33:36;;;;;;;;;;;;;;;21.78;82.43;97014.27;607924;233;64869;-68
2022/06/20 02:36:06;;;;;;;;;;;;;;;21.78;82.54;97003.56;607946;233;66511;-68
2022/06/20 02:38:34;;;;;;;;;;;;;;;21.79;82.45;97020.41;607897;233;64878;-68
2022/06/20 02:41:02;;;;;;;;;;;;;;;21.79;82.57;97017.73;607934;233;64877;-70
2022/06/20 02:43:31;;;;;;;;;;;;;;;21.79;82.64;97015.06;607930;233;66772;-70
2022/06/20 02:45:59;;;;;;;;;;;;;;;21.79;82.57;97015.06;607775;233;64375;-70
2022/06/20 02:48:28;;;;;;;;;;;;;;;21.78;82.61;97014.27;607926;233;66059;-75
2022/06/20 02:50:57;;;;;;;;;;;;;;;21.79;82.56;97004.36;607938;233;64388;-75
2022/06/20 02:53:29;;;;;;;;;;;;;;;21.79;82.59;96999.02;607941;233;64521;-75
2022/06/20 02:55:56;;;;;;;;;;;;;;;21.78;82.55;97000.89;607914;233;64917;-75
2022/06/20 02:58:25;;;;;;;;;;;;;;;21.78;82.59;97008.13;607926;233;66577;-75
2022/06/20 03:00:55;;;;;;;;;;;;;;;21.77;82.68;97004.66;607896;233;66649;-75
2022/06/20 03:03:33;;;;;;;;;;;;;;;21.78;82.65;97002.77;607928;233;62735;-75
2022/06/20 03:06:01;;;;;;;;;;;;;;;21.77;82.50;96996.63;607913;233;67105;-74
2022/06/20 03:08:28;;;;;;;;;;;;;;;21.78;82.62;96998.22;607934;233;66597;-74
2022/06/20 03:10:57;;;;;;;;;;;;;;;21.78;82.63;96997.42;607928;233;65045;-74
2022/06/20 03:13:24;;;;;;;;;;;;;;;21.77;82.62;96996.63;607889;233;64766;-74
2022/06/20 03:15:53;;;;;;;;;;;;;;;21.78;82.53;96998.22;607988;233;64567;-74
2022/06/20 03:18:21;;;;;;;;;;;;;;;21.78;82.50;97002.77;605658;233;62767;-74
2022/06/20 03:20:49;;;;;;;;;;;;;;;21.77;82.52;97003.83;601765;236;66534;-74
2022/06/20 03:23:24;;;;;;;;;;;;;;;21.77;82.42;97001.98;601737;236;64249;-74
2022/06/20 03:25:53;;;;;;;;;;;;;;;21.77;82.54;97001.98;601737;236;64889;-74
2022/06/20 03:28:22;;;;;;;;;;;;;;;21.78;82.54;97000.10;601708;236;66632;-74
2022/06/20 03:30:50;;;;;;;;;;;;;;;21.76;82.47;96995.02;601736;236;66392;-74
2022/06/20 03:33:18;;;;;;;;;;;;;;;21.76;82.47;96992.34;601737;236;63726;-74
2022/06/20 03:35:48;;;;;;;;;;;;;;;21.77;82.57;96990.45;601705;236;64403;-74
2022/06/20 03:38:16;;;;;;;;;;;;;;;21.77;82.52;96993.95;601518;236;64930;-74
2022/06/20 03:40:43;;;;;;;;;;;;;;;21.76;82.54;96992.34;601693;236;63733;-74
2022/06/20 03:43:12;;;;;;;;;;;;;;;21.77;82.52;96988.61;601756;236;64459;-74
2022/06/20 03:45:41;;;;;;;;;;;;;;;21.77;82.50;96987.78;601743;236;66302;-74
2022/06/20 03:48:10;;;;;;;;;;;;;;;21.77;82.55;96985.11;601679;236;65633;-74
2022/06/20 03:50:51;;;;;;;;;;;;;;;21.76;82.56;96989.66;601695;236;64759;-74
2022/06/20 03:53:26;;;;;;;;;;;;;;;21.77;82.54;96996.63;601676;236;66974;-74
2022/06/20 03:55:55;;;;;;;;;;;;;;;21.76;82.49;96995.02;601729;236;62851;-75
2022/06/20 03:58:31;;;;;;;;;;;;;;;21.76;82.50;97000.36;601677;235;66745;-75
2022/06/20 04:01:03;;;;;;;;;;;;;;;21.75;82.45;97001.45;601555;236;66795;-73
2022/06/20 04:03:35;;;;;;;;;;;;;;;21.76;82.48;97005.72;601672;236;64982;-74
2022/06/20 04:06:12;;;;;;;;;;;;;;;21.76;82.41;97005.72;601428;236;66735;-75
2022/06/20 04:11:30;;;;;;;;;;;;;;;21.76;82.49;96999.57;601739;236;65185;-75
2022/06/20 04:13:59;;;;;;;;;;;;;;;21.75;82.45;96998.77;601637;235;66583;-74
2022/06/20 04:16:33;;;;;;;;;;;;;;;21.75;82.43;97001.45;601744;236;47779;-74
2022/06/20 04:19:05;;;;;;;;;;;;;;;21.75;82.45;96995.30;601573;233;62868;-73
2022/06/20 04:21:35;;;;;;;;;;;;;;;21.75;82.43;96997.98;601694;236;67174;-73
2022/06/20 04:24:20;;;;;;;;;;;;;;;21.75;82.36;96993.42;601654;236;66843;-73
2022/06/20 04:26:49;;;;;;;;;;;;;;;21.74;82.32;96994.48;601704;236;62851;-76
2022/06/20 04:29:18;;;;;;;;;;;;;;;21.75;82.36;96995.30;601651;236;65447;-75
2022/06/20 04:32:02;;;;;;;;;;;;;;;21.74;82.33;97002.50;601619;236;66533;-76
2022/06/20 04:34:34;;;;;;;;;;;;;;;21.74;82.30;97005.18;601654;235;65240;-75
2022/06/20 04:37:06;;;;;;;;;;;;;;;21.75;82.26;97003.33;601712;236;64598;-75
2022/06/20 04:39:39;;;;;;;;;;;;;;;21.73;82.26;96996.36;601522;236;64565;-74
2022/06/20 04:42:23;;;;;;;;;;;;;;;21.74;82.17;96997.16;601642;236;63722;-74
2022/06/20 04:44:54;;;;;;;;;;;;;;;21.74;82.25;96994.48;601414;236;66786;-74
2022/06/20 04:47:33;;;;;;;;;;;;;;;21.74;82.31;96999.83;601413;235;64340;-74
2022/06/20 04:50:00;;;;;;;;;;;;;;;21.73;82.30;96996.36;601675;236;62889;-74
2022/06/20 04:52:30;;;;;;;;;;;;;;;21.74;82.24;96991.81;601723;236;64615;-74
2022/06/20 04:54:57;;;;;;;;;;;;;;;21.73;82.28;96998.24;601692;236;66657;-74
2022/06/20 04:57:26;;;;;;;;;;;;;;;21.73;82.19;96992.89;601728;236;64860;-74
2022/06/20 04:59:56;;;;;;;;;;;;;;;21.74;82.17;96991.81;601749;236;66729;-74
2022/06/20 05:02:25;;;;;;;;;;;;;;;21.73;82.09;96990.22;601745;236;64194;-74
2022/06/20 05:04:53;;;;;;;;;;;;;;;21.73;82.08;96985.66;601724;236;64908;-74
2022/06/20 05:07:28;;;;;;;;;;;;;;;21.74;81.95;96989.13;601708;236;64532;-74
2022/06/20 05:10:00;;;;;;;;;;;;;;;21.73;81.53;96992.89;601450;236;66990;-76
2022/06/20 05:12:29;;;;;;;;;;;;;;;21.72;80.97;96984.08;601661;236;62785;-74
2022/06/20 05:14:58;;;;;;;;;;;;;;;21.72;80.91;96985.95;601749;235;64496;-74
2022/06/20 05:17:27;;;;;;;;;;;;;;;21.73;80.80;96991.02;601533;235;64532;-74
2022/06/20 05:19:56;;;;;;;;;;;;;;;21.73;80.90;96984.88;608799;233;62805;-74
2022/06/20 05:22:26;;;;;;;;;;;;;;;21.74;81.17;96986.45;608835;233;64309;-74
2022/06/20 05:24:55;;;;;;;;;;;;;;;21.73;80.99;96987.55;608770;233;66758;-73
2022/06/20 05:27:30;;;;;;;;;;;;;;;21.73;80.88;96984.88;608828;233;65380;-74
2022/06/20 05:30:05;;;;;;;;;;;;;;;21.73;80.83;96984.88;608836;233;65175;-74
2022/06/20 05:32:30;;;;;;;;;;;;;;;21.73;80.80;96988.34;608711;232;64201;-73
2022/06/20 05:35:01;;;;;;;;;;;;;;;21.73;80.75;96980.31;608746;233;62815;-74
2022/06/20 05:37:35;;;;;;;;;;;;;;;21.72;80.64;96978.73;608809;233;64916;-74
2022/06/20 05:40:04;;;;;;;;;;;;;;;21.73;80.59;96987.55;608787;231;64576;-74
2022/06/20 05:42:32;;;;;;;;;;;;;;;21.72;80.60;96986.75;608626;233;62839;-74
2022/06/20 05:45:00;;;;;;;;;;;;;;;21.73;80.83;96984.88;608858;233;64575;-75
2022/06/20 05:47:28;;;;;;;;;;;;;;;21.72;80.71;96977.93;608817;233;64478;-74
2022/06/20 05:49:57;;;;;;;;;;;;;;;21.73;80.62;96971.50;608761;233;63650;-75
2022/06/20 05:52:27;;;;;;;;;;;;;;;21.73;80.64;96974.97;608821;231;66725;-70
2022/06/20 05:55:02;;;;;;;;;;;;;;;21.72;80.55;96969.91;608817;233;66826;-70
2022/06/20 05:57:30;;;;;;;;;;;;;;;21.72;80.64;96960.00;608805;233;64878;-71
2022/06/20 06:00:02;;;;;;;;;;;;;;;21.73;80.76;96966.14;608746;233;64318;-70
2022/06/20 06:02:42;;;;;;;;;;;;;;;21.72;80.74;96967.23;608755;233;45305;-68
2022/06/20 06:05:29;;;;;;;;;;;;;;;21.72;79.12;96967.23;608135;233;64902;-69
2022/06/20 06:08:01;;;;;;;;;;;;;;;21.72;80.13;96965.35;607141;231;66763;-69
2022/06/20 06:10:32;;;;;;;;;;;;;;;21.72;80.20;96962.67;608682;233;66838;-69
2022/06/20 06:13:05;;;;;;;;;;;;;;;21.72;80.14;96954.66;608533;233;63766;-70
2022/06/20 06:15:36;;;;;;;;;;;;;;;21.71;79.41;96952.24;600642;233;64670;-69
2022/06/20 06:18:05;;;;;;;;;;;;;;;21.72;79.42;96953.86;608972;232;66341;-69
2022/06/20 06:20:33;;;;;;;;;;;;;;;21.71;79.68;96950.36;609872;232;65149;-69
2022/06/20 06:23:02;;;;;;;;;;;;;;;21.73;79.99;96956.24;609909;232;66888;-69
2022/06/20 06:25:31;;;;;;;;;;;;;;;21.75;80.20;96947.95;609757;232;67821;-68
2022/06/20 06:28:09;;;;;;;;;;;;;;;21.76;80.45;96946.86;609961;232;64831;-69
2022/06/20 06:30:43;;;;;;;;;;;;;;;21.76;80.68;96946.86;609999;232;66745;-68
2022/06/20 06:33:12;;;;;;;;;;;;;;;21.74;79.00;96943.66;609782;232;66749;-71
2022/06/20 06:35:41;;;;;;;;;;;;;;;21.76;79.12;96936.16;609939;232;64937;-69
2022/06/20 06:38:19;;;;;;;;;;;;;;;21.77;79.64;96932.44;609981;232;66788;-68
2022/06/20 06:40:51;;;;;;;;;;;;;;;21.78;80.25;96933.23;609568;232;66783;-68
2022/06/20 06:43:22;;;;;;;;;;;;;;;21.78;80.59;96922.53;610081;232;62790;-68
2022/06/20 06:45:51;;;;;;;;;;;;;;;21.79;80.67;96927.58;604473;232;64231;-68
2022/06/20 06:48:23;;;;;;;;;;;;;;;21.79;80.70;96921.44;599368;236;64662;-69
2022/06/20 06:50:55;;;;;;;;;;;;;;;21.79;80.75;96922.23;599903;234;62913;-68
2022/06/20 06:53:33;;;;;;;;;;;;;;;21.80;80.77;96921.17;600054;234;64847;-70
2022/06/20 06:56:18;;;;;;;;;;;;;;;21.79;80.78;96916.88;599859;236;64433;-75
2022/06/20 06:58:47;;;;;;;;;;;;;;;21.80;80.69;96920.35;599888;234;63102;-68
2022/06/20 07:01:16;;;;;;;;;;;;;;;21.79;79.54;96916.09;600002;236;64312;-68
2022/06/20 07:03:45;;;;;;;;;;;;;;;21.78;79.67;96909.95;599976;236;66692;-68
2022/06/20 07:06:17;;;;;;;;;;;;;;;21.79;80.32;96908.86;599895;233;64873;-68
2022/06/20 07:08:46;;;;;;;;;;;;;;;21.81;80.34;96901.36;599428;236;64478;-69
2022/06/20 07:11:15;;;;;;;;;;;;;;;21.80;80.18;96899.77;599956;234;64699;-68
2022/06/20 07:14:01;;;;;;;;;;;;;;;21.80;80.02;96889.08;600064;234;66026;-68
2022/06/20 07:16:30;;;;;;;;;;;;;;;21.81;79.86;96896.01;599892;236;66738;-70
2022/06/20 07:18:59;;;;;;;;;;;;;;;21.80;79.74;96888.25;603376;234;66659;-69
2022/06/20 07:21:28;;;;;;;;;;;;;;;21.80;79.42;96890.92;605510;234;62819;-69
2022/06/20 07:23:57;;;;;;;;;;;;;;;21.80;79.24;96888.25;605517;234;64613;-75
2022/06/20 07:26:26;;;;;;;;;;;;;;;21.80;79.11;96881.05;605558;234;66727;-75
2022/06/20 07:29:01;;;;;;;;;;;;;;;21.80;78.97;96883.72;605578;234;62755;-73
2022/06/20 07:31:30;;;;;;;;;;;;;;;21.82;78.90;96891.45;605512;234;64635;-74
2022/06/20 07:34:01;;;;;;;;;;;;;;;21.80;78.69;96880.22;605598;234;66241;-73
2022/06/20 07:36:33;;;;;;;;;;;;;;;21.79;78.62;96876.76;605403;234;47270;-76
2022/06/20 07:39:01;;;;;;;;;;;;;;;21.80;78.51;96878.38;605132;234;66574;-76
2022/06/20 07:41:33;;;;;;;;;;;;;;;21.81;78.43;96866.59;605529;234;66700;-79
2022/06/20 07:44:02;;;;;;;;;;;;;;;21.81;78.87;96877.28;605581;234;62654;-77
2022/06/20 07:46:31;;;;;;;;;;;;;;;21.81;78.78;96873.81;605410;234;66593;-76
2022/06/20 07:49:00;;;;;;;;;;;;;;;21.82;78.67;96880.75;605498;234;66295;-77
2022/06/20 07:51:35;;;;;;;;;;;;;;;21.82;78.68;96870.05;605504;234;62751;-75
2022/06/20 07:54:10;;;;;;;;;;;;;;;21.83;78.84;96877.02;605503;234;64142;-75
2022/06/20 07:56:46;;;;;;;;;;;;;;;21.87;75.42;96875.37;605465;234;66730;-74
2022/06/20 07:59:14;;;;;;;;;;;;;;;21.89;76.97;96867.87;605346;234;65078;-76
2022/06/20 08:02:00;;;;;;;;;;;;;;;21.89;77.37;96870.55;605312;234;64333;-75
2022/06/20 08:04:29;;;;;;;;;;;;;;;21.90;75.49;96877.48;605527;234;65471;-75
2022/06/20 08:07:01;;;;;;;;;;;;;;;21.90;78.14;96867.57;605132;234;63098;-72
2022/06/20 08:09:39;;;;;;;;;;;;;;;21.88;78.33;96868.92;605512;234;64840;-75
2022/06/20 08:12:13;;;;;;;;;;;;;;;21.86;78.33;96871.90;605560;234;66658;-78
2022/06/20 08:14:42;;;;;;;;;;;;;;;21.86;78.67;96869.22;605407;234;65836;-73
2022/06/20 08:17:11;;;;;;;;;;;;;;;21.87;78.61;96870.02;600831;234;66663;-75
2022/06/20 08:19:40;;;;;;;;;;;;;;;21.86;78.93;96876.45;605494;234;66899;-71
2022/06/20 08:22:09;;;;;;;;;;;;;;;21.85;78.91;96872.98;605501;234;64886;-71
2022/06/20 08:24:38;;;;;;;;;;;;;;;21.84;79.33;96868.70;605527;234;66869;-72
2022/06/20 08:27:08;;;;;;;;;;;;;;;21.85;79.54;96872.16;604719;234;66651;-70
2022/06/20 08:29:37;;;;;;;;;;;;;;;21.84;79.58;96874.05;605599;234;65712;-71
2022/06/20 08:32:06;;;;;;;;;;;;;;;21.85;79.52;96869.48;605401;234;66992;-71
2022/06/20 08:34:47;;;;;;;;;;;;;;;21.84;79.41;96868.70;604965;234;66698;-70
2022/06/20 08:37:19;;;;;;;;;;;;;;;21.84;79.25;96868.70;606113;231;62744;-72
2022/06/20 08:39:51;;;;;;;;;;;;;;;21.84;79.10;96871.38;604173;235;64458;-78
2022/06/20 08:42:37;;;;;;;;;;;;;;;21.85;79.00;96880.19;604011;235;66748;-75
2022/06/20 08:45:21;;;;;;;;;;;;;;;21.85;78.91;96881.02;604226;235;62948;-77
2022/06/20 08:48:06;;;;;;;;;;;;;;;21.84;78.75;96884.75;603180;235;67620;-76
2022/06/20 08:50:35;;;;;;;;;;;;;;;21.84;78.73;96871.38;605772;231;66774;-76
2022/06/20 08:53:20;;;;;;;;;;;;;;;21.84;78.73;96867.91;609570;231;62742;-77
2022/06/20 08:55:59;;;;;;;;;;;;;;;21.84;78.70;96871.38;612366;231;67084;-77
2022/06/20 08:58:31;;;;;;;;;;;;;;;21.83;78.81;96872.46;612398;231;65215;-76
2022/06/20 09:01:06;;;;;;;;;;;;;;;21.84;78.72;96868.70;612416;231;62863;-71
2022/06/20 09:03:38;;;;;;;;;;;;;;;21.85;78.70;96866.81;611076;231;64675;-70
2022/06/20 09:06:07;;;;;;;;;;;;;;;21.85;78.77;96875.66;612387;231;64796;-71
2022/06/20 09:08:48;;;;;;;;;;;;;;;21.85;78.68;96862.28;612275;231;62857;-70
2022/06/20 09:11:18;;;;;;;;;;;;;;;21.86;78.69;96860.41;612258;231;67051;-70
2022/06/20 09:13:50;;;;;;;;;;;;;;;21.86;78.79;96863.08;612335;231;66947;-67
2022/06/20 09:16:20;;;;;;;;;;;;;;;21.89;77.09;96863.31;612356;231;64906;-70
2022/06/20 09:18:50;;;;;;;;;;;;;;;21.89;75.27;96854.48;610272;231;66711;-70
2022/06/20 09:21:22;;;;;;;;;;;;;;;21.89;76.58;96851.81;608620;233;66874;-69
2022/06/20 09:24:07;;;;;;;;;;;;;;;21.88;76.90;96851.02;608433;233;65346;-71
2022/06/20 09:26:36;;;;;;;;;;;;;;;21.91;76.29;96852.34;608644;233;65054;-71
2022/06/20 09:29:05;;;;;;;;;;;;;;;21.93;73.78;96856.34;608707;231;66672;-75
2022/06/20 09:31:35;;;;;;;;;;;;;;;21.97;73.97;96851.21;608666;233;65235;-73
2022/06/20 09:34:10;;;;;;;;;;;;;;;21.97;75.90;96853.09;608743;233;67024;-73
2022/06/20 09:36:56;;;;;;;;;;;;;;;21.93;76.89;96850.98;608702;233;67802;-73
2022/06/20 09:39:28;;;;;;;;;;;;;;;21.90;77.55;96850.72;608698;233;65168;-72
2022/06/20 09:42:09;;;;;;;;;;;;;;;21.89;78.29;96851.81;608783;233;64945;-71
2022/06/20 09:44:41;;;;;;;;;;;;;;;21.88;78.45;96840.33;608596;233;66942;-70
2022/06/20 09:47:13;;;;;;;;;;;;;;;21.87;78.52;96846.73;608511;231;62792;-70
2022/06/20 09:49:41;;;;;;;;;;;;;;;21.86;74.23;96839.80;608575;233;67078;-69
2022/06/20 09:52:14;;;;;;;;;;;;;;;21.88;76.45;96837.64;608660;231;66908;-69
2022/06/20 09:54:55;;;;;;;;;;;;;;;21.89;77.35;96833.88;608635;233;64892;-71
2022/06/20 09:57:27;;;;;;;;;;;;;;;21.88;77.89;96834.97;608658;231;64822;-71
2022/06/20 10:00:08;;;;;;;;;;;;;;;21.87;78.07;96841.38;608568;231;64788;-69
2022/06/20 10:02:48;;;;;;;;;;;;;;;21.88;78.12;96839.50;608757;233;37368;-72
2022/06/20 10:05:24;;;;;;;;;;;;;;;21.87;78.21;96825.33;608707;233;64877;-72
2022/06/20 10:07:56;;;;;;;;;;;;;;;21.88;78.34;96826.12;608698;233;66821;-72
2022/06/20 10:10:31;;;;;;;;;;;;;;;21.87;78.42;96827.21;608569;233;65203;-72
2022/06/20 10:13:18;;;;;;;;;;;;;;;21.88;78.48;96818.09;608655;233;68332;-71
2022/06/20 10:15:50;;;;;;;;;;;;;;;21.90;74.89;96822.09;608612;231;67283;-68
2022/06/20 10:18:19;;;;;;;;;;;;;;;21.90;77.53;96822.09;608186;233;63015;-70
2022/06/20 10:20:48;;;;;;;;;;;;;;;21.89;78.04;96820.50;607769;233;64842;-70
2022/06/20 10:23:17;;;;;;;;;;;;;;;21.90;78.35;96818.62;607822;233;64977;-70
2022/06/20 10:26:04;;;;;;;;;;;;;;;21.89;78.48;96819.71;607869;233;63754;-68
2022/06/20 10:28:39;;;;;;;;;;;;;;;21.89;78.63;96817.03;607838;233;64859;-69
2022/06/20 10:31:20;;;;;;;;;;;;;;;21.89;78.68;96828.53;607808;233;67165;-73
2022/06/20 10:33:55;;;;;;;;;;;;;;;21.93;73.57;96821.55;607802;233;63246;-68
2022/06/20 10:36:27;;;;;;;;;;;;;;;21.95;74.26;96822.05;607539;233;64546;-68
2022/06/20 10:38:56;;;;;;;;;;;;;;;21.95;75.84;96815.91;607806;233;64885;-68
2022/06/20 10:41:42;;;;;;;;;;;;;;;21.93;76.54;96808.17;607779;233;62760;-68
2022/06/20 10:44:25;;;;;;;;;;;;;;;21.91;77.22;96806.86;607741;233;65025;-68
2022/06/20 10:47:03;;;;;;;;;;;;;;;21.90;77.68;96803.36;607841;233;67169;-70
2022/06/20 10:49:31;;;;;;;;;;;;;;;21.90;77.84;96807.92;607793;233;65242;-68
2022/06/20 10:52:09;;;;;;;;;;;;;;;21.89;77.95;96804.45;607764;233;67320;-71
2022/06/20 10:54:40;;;;;;;;;;;;;;;21.89;77.97;96799.10;607806;233;66949;-68
2022/06/20 10:57:18;;;;;;;;;;;;;;;21.90;78.10;96797.22;607788;233;65110;-68
2022/06/20 11:00:03;;;;;;;;;;;;;;;21.89;78.23;96807.13;607813;233;66950;-69
2022/06/20 11:02:35;;;;;;;;;;;;;;;21.89;78.27;96799.10;607853;233;64849;-69
2022/06/20 11:05:04;;;;;;;;;;;;;;;21.88;78.51;96794.84;607722;233;65160;-70
2022/06/20 11:07:36;;;;;;;;;;;;;;;21.88;78.62;96781.47;607783;233;67060;-68
2022/06/20 11:10:12;;;;;;;;;;;;;;;21.89;78.67;96790.28;607727;233;66962;-68
2022/06/20 11:12:44;;;;;;;;;;;;;;;21.89;78.67;96783.05;607645;233;65027;-70
2022/06/20 11:15:13;;;;;;;;;;;;;;;21.89;77.66;96779.58;607827;233;66788;-68
2022/06/20 11:17:42;;;;;;;;;;;;;;;21.91;78.50;96788.13;607680;233;66949;-69
2022/06/20 11:20:20;;;;;;;;;;;;;;;21.89;78.25;96791.08;607838;233;62690;-67
2022/06/20 11:22:49;;;;;;;;;;;;;;;21.90;78.34;96781.95;607804;233;65915;-68
2022/06/20 11:25:36;;;;;;;;;;;;;;;21.90;78.39;96781.95;607655;233;64361;-68
2022/06/20 11:28:24;;;;;;;;;;;;;;;21.90;78.39;96779.28;607746;233;65075;-68
2022/06/20 11:30:53;;;;;;;;;;;;;;;21.91;78.43;96772.88;607777;233;67083;-77
2022/06/20 11:34:00;;;;;;;;;;;;;;;21.90;78.44;96773.14;607696;233;68060;-75
2022/06/20 11:35:59;;;;;;;;;;;;;;;21.90;78.44;96770.47;606952;233;63644;-74
2022/06/20 11:38:30;;;;;;;;;;;;;;;21.89;78.38;96772.34;607690;233;44473;-74
2022/06/20 11:41:08;;;;;;;;;;;;;;;21.89;78.54;96772.34;607667;233;64835;-76
2022/06/20 11:43:53;;;;;;;;;;;;;;;21.90;78.58;96773.94;607780;233;62829;-77
2022/06/20 11:46:36;;;;;;;;;;;;;;;21.90;78.57;96763.23;607809;233;64934;-78
2022/06/20 11:49:09;;;;;;;;;;;;;;;21.90;78.60;96760.55;607908;233;49117;-77
2022/06/20 11:51:47;;;;;;;;;;;;;;;21.90;78.63;96749.06;607783;233;63050;-74
2022/06/20 11:54:31;;;;;;;;;;;;;;;21.90;78.69;96744.50;607781;233;64227;-75
2022/06/20 11:57:02;;;;;;;;;;;;;;;21.90;78.72;96744.50;608092;233;66443;-75
2022/06/20 11:59:31;;;;;;;;;;;;;;;21.90;78.67;96744.50;607839;233;65290;-73
2022/06/20 12:02:03;;;;;;;;;;;;;;;21.90;78.69;96744.50;607805;233;67124;-75
2022/06/20 12:04:36;;;;;;;;;;;;;;;21.90;78.71;96744.50;607831;233;65597;-76
2022/06/20 12:07:08;;;;;;;;;;;;;;;21.90;78.79;96736.48;607828;233;62672;-75
2022/06/20 12:09:46;;;;;;;;;;;;;;;21.91;77.27;96734.62;607887;233;64618;-75
2022/06/20 12:12:19;;;;;;;;;;;;;;;21.94;76.48;96739.41;607834;233;65085;-76
2022/06/20 12:14:51;;;;;;;;;;;;;;;21.94;78.59;96739.41;607690;233;64915;-75
2022/06/20 12:17:23;;;;;;;;;;;;;;;21.93;78.34;96738.61;607798;233;64727;-75
2022/06/20 12:25:31;;;;;;;;;;;;;;;21.92;78.66;96723.63;608748;233;67371;-74
2022/06/20 12:27:58;;;;;;;;;;;;;;;21.92;78.70;96722.83;608659;233;64763;-74
2022/06/20 12:30:26;;;;;;;;;;;;;;;21.91;78.78;96719.36;608751;233;62944;-75
2022/06/20 12:32:55;;;;;;;;;;;;;;;21.93;78.79;96716.39;608698;233;67093;-75
2022/06/20 12:35:24;;;;;;;;;;;;;;;21.93;78.82;96722.56;608763;233;64936;-75
2022/06/20 12:37:53;;;;;;;;;;;;;;;21.93;78.88;96717.20;608684;232;62748;-75
2022/06/20 12:40:25;;;;;;;;;;;;;;;21.93;78.93;96719.89;605804;231;64955;-75
2022/06/20 12:43:03;;;;;;;;;;;;;;;21.93;78.96;96708.36;608874;232;64637;-74
2022/06/20 12:45:35;;;;;;;;;;;;;;;21.93;79.00;96709.19;604928;231;62957;-76
2022/06/20 12:48:04;;;;;;;;;;;;;;;21.92;79.02;96699.55;601922;235;67112;-71
2022/06/20 12:50:41;;;;;;;;;;;;;;;21.92;79.05;96702.22;602613;235;47488;-73
2022/06/20 12:53:10;;;;;;;;;;;;;;;21.94;79.04;96700.06;602937;235;62797;-74
2022/06/20 12:55:39;;;;;;;;;;;;;;;21.93;79.02;96689.63;602851;235;65082;-75
2022/06/20 12:58:08;;;;;;;;;;;;;;;21.94;79.03;96693.92;602851;233;64718;-74
2022/06/20 13:00:37;;;;;;;;;;;;;;;21.94;79.05;96693.92;603806;235;62916;-75
2022/06/20 13:03:12;;;;;;;;;;;;;;;21.94;79.05;96692.04;603918;235;67258;-74
2022/06/20 13:05:58;;;;;;;;;;;;;;;21.94;79.10;96686.69;603699;235;45705;-73
2022/06/20 13:08:36;;;;;;;;;;;;;;;21.94;79.11;96677.87;604025;235;64889;-73
2022/06/20 13:11:06;;;;;;;;;;;;;;;21.93;79.13;96677.08;603971;235;67475;-73
2022/06/20 13:13:38;;;;;;;;;;;;;;;21.94;79.15;96680.55;603875;235;67037;-74
2022/06/20 13:16:23;;;;;;;;;;;;;;;21.93;79.19;96679.75;604052;234;65304;-74
2022/06/20 13:19:10;;;;;;;;;;;;;;;21.94;79.20;96670.63;602445;235;67560;-75
2022/06/20 13:21:47;;;;;;;;;;;;;;;21.93;79.22;96666.38;601610;236;66830;-75
2022/06/20 13:24:33;;;;;;;;;;;;;;;21.95;79.25;96663.40;601659;236;62977;-75
2022/06/20 13:27:08;;;;;;;;;;;;;;;21.94;79.28;96664.49;601590;236;68020;-76